Time;durP1;ratioP1;P1;durP2;ratioP2;P2;SDS_P1;SDS_P2;PMS_P1;PMS_P2;Temp;Humidity;BMP_temperature;BMP_pressure;BME280_temperature;BME280_humidity;BME280_pressure;Samples;Min_cycle;Max_cycle;Signal;HPM_P1;HPM_P2
2023/09/30 00:01:14;;;;;;;4.45;1.90;;;;;;;14.04;100.00;99201.66;6101831;19;20463;-73
2023/09/30 00:03:14;;;;;;;2.97;1.85;;;;;;;13.99;100.00;99195.66;6103018;19;20035;-74
2023/09/30 00:05:15;;;;;;;5.70;1.73;;;;;;;13.97;100.00;99187.66;6103648;19;20002;-73
2023/09/30 00:07:15;;;;;;;4.80;2.42;;;;;;;14.03;100.00;99213.16;6103160;19;20009;-74
2023/09/30 00:09:16;;;;;;;6.32;2.13;;;;;;;13.99;100.00;99224.28;6103839;19;20019;-74
2023/09/30 00:11:19;;;;;;;5.38;2.55;;;;;;;13.98;100.00;99208.75;6101467;19;20459;-73
2023/09/30 00:13:19;;;;;;;8.15;1.90;;;;;;;13.96;100.00;99215.88;6103164;19;20003;-73
2023/09/30 00:15:19;;;;;;;4.05;1.67;;;;;;;13.96;100.00;99215.88;6103126;19;20007;-74
2023/09/30 00:17:20;;;;;;;4.15;1.83;;;;;;;13.92;100.00;99218.63;6103600;19;20010;-74
2023/09/30 00:19:22;;;;;;;5.43;1.70;;;;;;;13.92;100.00;99213.06;6102760;19;20027;-74
2023/09/30 00:21:23;;;;;;;4.22;1.88;;;;;;;13.94;100.00;99224.59;6103505;19;20007;-74
2023/09/30 00:23:23;;;;;;;5.15;2.00;;;;;;;13.91;100.00;99222.59;6102651;19;20086;-73
2023/09/30 00:25:24;;;;;;;4.13;1.70;;;;;;;13.92;100.00;99220.63;6104259;19;19998;-74
2023/09/30 00:27:24;;;;;;;5.25;2.00;;;;;;;13.89;100.00;99235.28;6103083;19;20009;-74
2023/09/30 00:29:24;;;;;;;6.35;1.92;;;;;;;13.90;100.00;99229.34;6102605;19;19999;-73
2023/09/30 00:31:25;;;;;;;5.72;1.95;;;;;;;13.87;100.00;99232.06;6101910;19;20054;-74
2023/09/30 00:33:25;;;;;;;4.78;2.00;;;;;;;13.82;100.00;99232.41;6103208;19;20010;-74
2023/09/30 00:35:25;;;;;;;4.20;1.50;;;;;;;13.73;100.00;99238.28;6101178;19;20007;-74
2023/09/30 00:37:27;;;;;;;4.18;1.77;;;;;;;13.69;100.00;99240.25;6103542;19;20110;-73
2023/09/30 00:39:30;;;;;;;5.03;1.88;;;;;;;13.67;100.00;99231.47;6102728;19;20578;-74
2023/09/30 00:41:30;;;;;;;4.43;1.60;;;;;;;13.68;100.00;99238.63;6101911;19;20014;-74
2023/09/30 00:43:31;;;;;;;6.13;1.73;;;;;;;13.65;100.00;99236.59;6101735;19;20474;-74
2023/09/30 00:45:32;;;;;;;5.55;1.83;;;;;;;13.61;100.00;99233.00;6102962;19;20527;-73
2023/09/30 00:47:33;;;;;;;4.15;1.77;;;;;;;13.56;100.00;99241.66;6102526;19;20006;-74
2023/09/30 00:49:34;;;;;;;4.22;1.70;;;;;;;13.48;100.00;99247.13;6102888;19;20385;-74
2023/09/30 00:51:34;;;;;;;4.72;1.80;;;;;;;13.47;100.00;99253.88;6108034;19;20007;-74
2023/09/30 00:53:35;;;;;;;9.13;2.33;;;;;;;13.51;100.00;99250.34;6109945;19;20380;-73
2023/09/30 00:55:36;;;;;;;7.95;2.35;;;;;;;13.60;100.00;99260.00;6109743;19;20003;-74
2023/09/30 00:57:38;;;;;;;3.60;1.90;;;;;;;13.55;100.00;99249.22;6108789;19;20040;-73
2023/09/30 00:59:39;;;;;;;4.75;1.85;;;;;;;13.55;100.00;99240.88;6108528;19;20232;-73
2023/09/30 01:01:43;;;;;;;3.60;1.70;;;;;;;13.48;100.00;99243.56;6103701;19;20364;-74
2023/09/30 01:03:46;;;;;;;3.15;1.85;;;;;;;13.42;100.00;99243.13;6108694;19;19999;-73
2023/09/30 01:05:46;;;;;;;3.88;1.98;;;;;;;13.36;100.00;99255.72;6108750;19;20013;-74
2023/09/30 01:07:46;;;;;;;6.75;1.90;;;;;;;13.33;100.00;99253.72;6108235;19;20010;-73
2023/09/30 01:09:47;;;;;;;3.75;2.08;;;;;;;13.30;100.00;99254.47;6108934;19;20401;-74
2023/09/30 01:11:48;;;;;;;3.42;1.50;;;;;;;13.28;100.00;99245.72;6107514;19;20022;-74
2023/09/30 01:13:49;;;;;;;3.10;2.03;;;;;;;13.25;100.00;99256.78;6108904;19;20003;-74
2023/09/30 01:15:49;;;;;;;6.53;2.20;;;;;;;13.21;100.00;99257.53;6108633;19;20017;-74
2023/09/30 01:17:49;;;;;;;4.00;2.00;;;;;;;13.21;100.00;99256.72;6107911;19;20074;-74
2023/09/30 01:19:52;;;;;;;4.82;1.73;;;;;;;13.19;100.00;99259.88;6107537;19;20351;-74
2023/09/30 01:22:05;;;;;;;3.83;2.00;;;;;;;13.16;100.00;99260.63;6108595;19;20019;-74
2023/09/30 01:24:06;;;;;;;3.70;1.73;;;;;;;13.15;100.00;99256.22;6107275;19;20010;-74
2023/09/30 01:26:14;;;;;;;3.53;2.33;;;;;;;13.13;100.00;99252.22;6108789;19;20011;-74
2023/09/30 01:28:16;;;;;;;5.00;2.13;;;;;;;13.12;100.00;99254.19;6106133;19;20482;-74
2023/09/30 01:30:17;;;;;;;6.30;2.13;;;;;;;13.13;100.00;99258.56;6106610;19;20089;-73
2023/09/30 01:32:18;;;;;;;7.10;2.55;;;;;;;13.08;100.00;99269.22;6107587;19;20462;-74
2023/09/30 01:34:18;;;;;;;4.63;2.28;;;;;;;13.00;100.00;99271.09;6105142;19;20013;-73
2023/09/30 01:36:19;;;;;;;4.55;1.92;;;;;;;13.03;100.00;99275.91;6107717;19;20631;-74
2023/09/30 01:38:19;;;;;;;6.53;1.98;;;;;;;12.99;100.00;99272.28;6106378;19;20355;-74
2023/09/30 01:40:20;;;;;;;4.13;2.00;;;;;;;12.96;100.00;99273.00;6106835;19;20608;-74
2023/09/30 01:42:21;;;;;;;3.78;1.90;;;;;;;12.91;100.00;99285.25;6107611;19;20304;-74
2023/09/30 01:44:21;;;;;;;3.50;2.00;;;;;;;12.85;100.00;99278.41;6107549;19;20186;-74
2023/09/30 01:46:22;;;;;;;5.68;2.30;;;;;;;12.78;100.00;99283.84;6107934;19;20011;-73
2023/09/30 01:48:23;;;;;;;5.13;2.20;;;;;;;12.73;100.00;99288.91;6107033;19;20035;-74
2023/09/30 01:50:23;;;;;;;3.47;1.88;;;;;;;12.70;100.00;99284.13;6107095;19;20488;-74
2023/09/30 01:52:23;;;;;;;5.22;2.08;;;;;;;12.71;100.00;99296.81;6107990;19;20455;-74
2023/09/30 01:54:24;;;;;;;5.28;2.10;;;;;;;12.73;100.00;99295.28;6108163;19;20467;-73
2023/09/30 01:56:25;;;;;;;4.38;2.30;;;;;;;12.72;100.00;99299.22;6107263;19;20019;-73
2023/09/30 01:58:25;;;;;;;4.63;2.35;;;;;;;12.75;100.00;99306.84;6108017;19;20006;-73
2023/09/30 02:00:27;;;;;;;4.63;2.17;;;;;;;12.71;100.00;99314.28;6105105;19;20111;-74
2023/09/30 02:02:28;;;;;;;4.95;2.65;;;;;;;12.64;100.00;99312.19;6107710;19;20011;-73
2023/09/30 02:04:29;;;;;;;3.75;2.20;;;;;;;12.59;100.00;99314.50;6107108;19;20006;-73
2023/09/30 02:06:29;;;;;;;6.57;2.45;;;;;;;12.54;100.00;99306.47;6107693;19;20375;-73
2023/09/30 02:08:30;;;;;;;8.75;2.55;;;;;;;12.51;100.00;99310.00;6105433;19;20438;-73
2023/09/30 02:10:30;;;;;;;4.07;2.47;;;;;;;12.51;100.00;99316.34;6105770;19;20007;-74
2023/09/30 02:12:30;;;;;;;5.40;2.20;;;;;;;12.42;100.00;99313.03;6106667;19;20565;-73
2023/09/30 02:14:31;;;;;;;4.10;2.65;;;;;;;12.34;100.00;99323.19;6107421;19;20006;-73
2023/09/30 02:16:32;;;;;;;5.53;2.70;;;;;;;12.30;100.00;99319.53;6106446;19;20343;-74
2023/09/30 02:18:32;;;;;;;3.67;2.53;;;;;;;12.25;100.00;99317.09;6108165;19;20118;-73
2023/09/30 02:20:33;;;;;;;8.05;3.10;;;;;;;12.20;100.00;99324.91;6105631;19;20014;-73
2023/09/30 02:22:34;;;;;;;5.32;2.67;;;;;;;12.15;100.00;99317.66;6107309;19;20357;-74
2023/09/30 02:24:34;;;;;;;7.57;2.58;;;;;;;12.10;100.00;99315.22;6106647;19;20020;-73
2023/09/30 02:26:34;;;;;;;5.30;2.60;;;;;;;12.08;100.00;99321.13;6106775;19;20006;-73
2023/09/30 02:28:36;;;;;;;6.00;2.65;;;;;;;11.99;100.00;99319.75;6106830;19;20018;-74
2023/09/30 02:30:36;;;;;;;4.50;2.55;;;;;;;11.95;100.00;99316.09;6105710;19;20010;-73
2023/09/30 02:32:39;;;;;;;4.93;2.65;;;;;;;11.90;100.00;99324.72;6107204;19;20091;-73
2023/09/30 02:34:40;;;;;;;6.57;2.88;;;;;;;11.82;100.00;99321.00;6104695;19;20470;-74
2023/09/30 02:36:40;;;;;;;4.97;2.67;;;;;;;11.78;100.00;99329.22;6105898;19;20010;-74
2023/09/30 02:38:41;;;;;;;6.97;3.28;;;;;;;11.74;100.00;99322.00;6106542;19;20010;-74
2023/09/30 02:40:45;;;;;;;4.50;2.70;;;;;;;11.68;100.00;99309.63;6105440;19;20025;-73
2023/09/30 02:42:45;;;;;;;6.75;2.60;;;;;;;11.65;100.00;99313.09;6106065;19;20011;-74
2023/09/30 02:44:47;;;;;;;4.70;2.50;;;;;;;11.61;100.00;99318.59;6106052;19;20469;-73
2023/09/30 02:46:47;;;;;;;8.88;3.15;;;;;;;11.56;100.00;99326.38;6106762;19;20038;-73
2023/09/30 02:48:47;;;;;;;7.95;3.55;;;;;;;11.55;100.00;99331.13;6105923;19;20360;-74
2023/09/30 02:50:48;;;;;;;5.68;3.08;;;;;;;11.54;100.00;99332.28;6105052;19;20495;-73
2023/09/30 02:52:49;;;;;;;5.18;2.65;;;;;;;11.53;100.00;99333.44;6106084;19;20014;-73
2023/09/30 02:54:50;;;;;;;5.50;2.90;;;;;;;11.50;100.00;99329.44;6106473;19;20471;-73
2023/09/30 02:56:52;;;;;;;5.30;2.75;;;;;;;11.44;100.00;99343.94;6105201;19;20003;-73
2023/09/30 02:58:52;;;;;;;5.90;2.90;;;;;;;11.39;100.00;99356.09;6105781;19;20022;-73
2023/09/30 03:00:53;;;;;;;5.03;2.83;;;;;;;11.38;100.00;99346.19;6104683;19;20011;-73
2023/09/30 03:02:55;;;;;;;6.60;3.35;;;;;;;11.37;100.00;99339.06;6104545;19;20018;-73
2023/09/30 03:04:58;;;;;;;3.97;2.97;;;;;;;11.31;100.00;99340.50;6104992;19;20507;-74
2023/09/30 03:06:58;;;;;;;7.18;3.15;;;;;;;11.33;100.00;99365.06;6105838;19;20275;-74
2023/09/30 03:08:58;;;;;;;4.10;2.53;;;;;;;11.27;100.00;99355.44;6104658;19;20038;-73
2023/09/30 03:10:59;;;;;;;7.57;2.97;;;;;;;11.28;100.00;99360.63;6104320;19;20003;-73
2023/09/30 03:13:01;;;;;;;7.40;2.55;;;;;;;11.29;100.00;99370.53;6105077;19;20007;-74
2023/09/30 03:15:04;;;;;;;5.72;2.78;;;;;;;11.34;100.00;99375.00;6105536;19;20013;-73
2023/09/30 03:17:04;;;;;;;6.47;3.20;;;;;;;11.35;100.00;99374.63;6104982;19;20070;-73
2023/09/30 03:19:05;;;;;;;4.40;2.58;;;;;;;11.38;100.00;99384.19;6103396;19;20472;-73
2023/09/30 03:21:14;;;;;;;5.00;2.67;;;;;;;11.34;100.00;99375.81;6109506;19;20022;-73
2023/09/30 03:23:14;;;;;;;5.40;2.65;;;;;;;11.34;100.00;99361.16;6111942;19;20044;-73
2023/09/30 03:25:17;;;;;;;5.22;2.67;;;;;;;11.33;100.00;99357.53;6108913;19;20443;-73
2023/09/30 03:27:17;;;;;;;7.22;2.70;;;;;;;11.32;100.00;99361.47;6111938;19;20013;-74
2023/09/30 03:29:18;;;;;;;10.48;3.00;;;;;;;11.29;100.00;99361.41;6111136;19;20030;-73
2023/09/30 03:31:22;;;;;;;5.55;3.05;;;;;;;11.26;100.00;99365.72;6109931;19;20490;-74
2023/09/30 03:33:22;;;;;;;6.90;2.78;;;;;;;11.20;100.00;99367.97;6111689;19;20377;-74
2023/09/30 03:35:23;;;;;;;5.88;3.33;;;;;;;11.19;100.00;99363.59;6107621;19;20019;-74
2023/09/30 03:37:26;;;;;;;6.68;3.13;;;;;;;11.13;100.00;99364.22;6110997;19;20439;-73
2023/09/30 03:39:27;;;;;;;6.47;3.33;;;;;;;11.11;100.00;99364.59;6110813;19;20045;-73
2023/09/30 03:41:28;;;;;;;6.93;2.83;;;;;;;11.06;100.00;99355.75;6109285;19;20023;-73
2023/09/30 03:43:28;;;;;;;4.15;2.70;;;;;;;11.03;100.00;99356.47;6110750;19;20294;-73
2023/09/30 03:45:29;;;;;;;6.32;3.22;;;;;;;10.97;100.00;99353.97;6109851;19;20074;-74
2023/09/30 03:47:31;;;;;;;5.35;3.47;;;;;;;10.89;100.00;99360.50;6111125;19;20849;-73
2023/09/30 03:49:31;;;;;;;5.60;3.17;;;;;;;10.87;100.00;99368.38;6099066;19;20002;-74
2023/09/30 03:51:31;;;;;;;5.43;3.00;;;;;;;10.84;100.00;99373.78;6108498;19;20324;-73
2023/09/30 03:53:32;;;;;;;7.35;3.42;;;;;;;10.81;100.00;99377.28;6110268;19;20984;-73
2023/09/30 03:55:33;;;;;;;5.82;2.75;;;;;;;10.78;100.00;99380.78;6109216;19;20368;-73
2023/09/30 03:57:36;;;;;;;6.65;3.10;;;;;;;10.76;100.00;99378.38;6110289;19;19995;-73
2023/09/30 03:59:36;;;;;;;5.80;3.25;;;;;;;10.73;100.00;99373.53;6109043;19;19999;-73
2023/09/30 04:01:40;;;;;;;7.78;3.30;;;;;;;10.74;100.00;99372.38;6109159;19;20015;-73
2023/09/30 04:03:41;;;;;;;4.95;3.38;;;;;;;10.71;100.00;99373.09;6109960;19;20026;-73
2023/09/30 04:05:42;;;;;;;7.43;3.30;;;;;;;10.62;100.00;99378.00;6109735;19;20010;-74
2023/09/30 04:07:43;;;;;;;8.57;3.70;;;;;;;10.59;100.00;99378.69;6111088;19;20082;-73
2023/09/30 04:09:43;;;;;;;5.68;2.92;;;;;;;10.58;100.00;99374.34;6109190;19;20007;-74
2023/09/30 04:11:43;;;;;;;8.27;3.50;;;;;;;10.64;100.00;99376.47;6108316;19;20041;-73
2023/09/30 04:13:45;;;;;;;6.90;3.25;;;;;;;10.71;100.00;99375.06;6109822;19;20010;-73
2023/09/30 04:15:46;;;;;;;6.03;3.17;;;;;;;10.75;100.00;99371.22;6109598;19;20028;-73
2023/09/30 04:17:48;;;;;;;4.88;3.03;;;;;;;10.77;100.00;99370.88;6109714;19;20013;-73
2023/09/30 04:19:51;;;;;;;5.40;3.22;;;;;;;10.69;100.00;99370.69;6108681;19;20027;-73
2023/09/30 04:21:51;;;;;;;4.53;2.58;;;;;;;10.61;100.00;99370.88;6109733;19;20007;-73
2023/09/30 04:23:53;;;;;;;5.47;2.45;;;;;;;10.56;100.00;99360.84;6108818;19;20048;-73
2023/09/30 04:25:53;;;;;;;7.75;2.80;;;;;;;10.51;100.00;99355.59;6108703;19;20017;-73
2023/09/30 04:27:53;;;;;;;5.97;2.85;;;;;;;10.47;100.00;99359.44;6109173;19;20014;-73
2023/09/30 04:29:54;;;;;;;11.80;3.33;;;;;;;10.45;100.00;99370.06;6108310;19;20029;-74
2023/09/30 04:31:56;;;;;;;9.68;3.33;;;;;;;10.45;100.00;99373.63;6108751;19;20325;-74
2023/09/30 04:33:57;;;;;;;6.50;2.88;;;;;;;10.43;100.00;99383.44;6106556;19;20009;-73
2023/09/30 04:35:58;;;;;;;7.03;3.17;;;;;;;10.43;100.00;99389.78;6109078;19;20454;-74
2023/09/30 04:38:01;;;;;;;4.03;2.30;;;;;;;10.43;100.00;99378.72;6107974;19;20090;-73
2023/09/30 04:40:07;;;;;;;6.35;2.83;;;;;;;10.45;100.00;99387.47;6106977;19;20066;-73
2023/09/30 04:42:10;;;;;;;5.57;2.90;;;;;;;10.46;100.00;99389.06;6109236;19;20034;-73
2023/09/30 04:44:11;;;;;;;5.00;2.70;;;;;;;10.45;100.00;99384.69;6108614;19;20527;-73
2023/09/30 04:46:12;;;;;;;5.47;2.80;;;;;;;10.47;100.00;99392.63;6110037;19;20011;-74
2023/09/30 04:48:13;;;;;;;6.70;2.85;;;;;;;10.45;100.00;99386.66;6108589;19;20010;-74
2023/09/30 04:50:16;;;;;;;6.25;2.80;;;;;;;10.47;100.00;99389.88;6103026;19;20369;-74
2023/09/30 04:52:16;;;;;;;9.88;3.25;;;;;;;10.47;100.00;99385.13;6101445;19;20006;-73
2023/09/30 04:54:16;;;;;;;4.25;2.80;;;;;;;10.50;100.00;99387.19;6101871;19;20316;-73
2023/09/30 04:56:17;;;;;;;5.03;2.45;;;;;;;10.50;100.00;99387.19;6101691;19;19999;-73
2023/09/30 04:58:18;;;;;;;6.55;2.97;;;;;;;10.51;100.00;99385.22;6101602;19;20488;-73
2023/09/30 05:00:24;;;;;;;5.53;2.83;;;;;;;10.45;100.00;99393.00;6100537;19;20074;-74
2023/09/30 05:02:26;;;;;;;5.38;3.13;;;;;;;10.39;100.00;99397.16;6102313;19;20007;-74
2023/09/30 05:04:26;;;;;;;7.38;3.13;;;;;;;10.35;100.00;99394.31;6101124;19;20014;-74
2023/09/30 05:06:26;;;;;;;7.43;3.20;;;;;;;10.31;100.00;99401.69;6102610;19;20082;-73
2023/09/30 05:08:28;;;;;;;7.72;3.42;;;;;;;10.31;100.00;99406.44;6101299;19;20002;-73
2023/09/30 05:10:29;;;;;;;7.60;2.88;;;;;;;10.29;100.00;99400.44;6100815;19;20538;-74
2023/09/30 05:12:29;;;;;;;7.80;3.20;;;;;;;10.32;100.00;99413.56;6101282;19;20010;-74
2023/09/30 05:14:29;;;;;;;9.07;3.05;;;;;;;10.32;100.00;99419.09;6101554;19;20012;-74
2023/09/30 05:16:30;;;;;;;6.13;3.25;;;;;;;10.29;100.00;99415.09;6101289;19;20006;-74
2023/09/30 05:18:30;;;;;;;9.57;3.53;;;;;;;10.25;100.00;99410.59;6101968;19;20508;-73
2023/09/30 05:20:30;;;;;;;7.63;3.00;;;;;;;10.24;100.00;99420.88;6099431;19;20002;-73
2023/09/30 05:22:31;;;;;;;8.27;2.83;;;;;;;10.20;100.00;99419.13;6100575;19;20589;-73
2023/09/30 05:24:31;;;;;;;9.32;3.58;;;;;;;10.19;100.00;99434.13;6101147;19;20010;-74
2023/09/30 05:26:32;;;;;;;6.10;2.97;;;;;;;10.18;100.00;99427.78;6101355;19;20319;-74
2023/09/30 05:28:33;;;;;;;8.07;2.85;;;;;;;10.17;100.00;99428.94;6101371;19;20014;-74
2023/09/30 05:30:33;;;;;;;8.80;3.30;;;;;;;10.19;100.00;99432.16;6099637;19;20022;-74
2023/09/30 05:32:38;;;;;;;7.47;3.55;;;;;;;10.25;100.00;99430.75;6100074;19;20026;-74
2023/09/30 05:34:39;;;;;;;7.65;3.30;;;;;;;10.28;100.00;99430.06;6098218;19;20025;-73
2023/09/30 05:36:39;;;;;;;5.82;2.90;;;;;;;10.28;100.00;99427.31;6100689;19;20006;-74
2023/09/30 05:38:39;;;;;;;11.65;3.08;;;;;;;10.32;100.00;99430.16;6101000;19;20002;-74
2023/09/30 05:40:41;;;;;;;5.07;2.80;;;;;;;10.35;100.00;99419.22;6099728;19;20006;-74
2023/09/30 05:42:44;;;;;;;10.88;4.18;;;;;;;10.37;100.00;99430.72;6098196;19;20736;-73
2023/09/30 05:44:45;;;;;;;5.72;3.53;;;;;;;10.36;100.00;99428.31;6099989;19;20034;-74
2023/09/30 05:46:46;;;;;;;10.18;3.47;;;;;;;10.35;100.00;99427.50;6101615;19;20003;-74
2023/09/30 05:48:46;;;;;;;6.53;3.22;;;;;;;10.34;100.00;99427.84;6100537;19;20494;-73
2023/09/30 05:50:47;;;;;;;9.70;4.10;;;;;;;10.30;100.00;99435.25;6103364;19;20045;-74
2023/09/30 05:52:48;;;;;;;8.05;3.72;;;;;;;10.29;100.00;99433.66;6107949;19;20006;-74
2023/09/30 05:54:48;;;;;;;9.30;3.30;;;;;;;10.16;100.00;99438.38;6107186;19;20010;-73
2023/09/30 05:56:49;;;;;;;10.75;3.55;;;;;;;10.04;100.00;99442.00;6107790;19;20006;-73
2023/09/30 05:58:49;;;;;;;7.32;3.70;;;;;;;9.99;100.00;99442.25;6107178;19;20014;-73
2023/09/30 06:00:50;;;;;;;5.18;2.88;;;;;;;9.99;100.00;99456.06;6106335;19;20422;-73
2023/09/30 06:02:51;;;;;;;6.70;2.55;;;;;;;9.91;100.00;99454.25;6107063;19;20002;-73
2023/09/30 06:04:53;;;;;;;7.70;3.45;;;;;;;9.89;100.00;99451.03;6103912;19;20011;-73
2023/09/30 06:06:53;;;;;;;8.50;4.18;;;;;;;9.91;100.00;99450.69;6106818;19;20006;-74
2023/09/30 06:08:54;;;;;;;8.15;3.05;;;;;;;9.89;100.00;99448.28;6107498;19;20542;-73
2023/09/30 06:10:54;;;;;;;6.72;3.05;;;;;;;9.88;100.00;99445.88;6105059;19;20014;-74
2023/09/30 06:12:56;;;;;;;6.97;3.03;;;;;;;9.85;100.00;99458.44;6106268;19;20007;-73
2023/09/30 06:14:56;;;;;;;8.38;3.33;;;;;;;9.80;100.00;99445.66;6105984;19;20019;-74
2023/09/30 06:16:56;;;;;;;7.90;3.65;;;;;;;9.80;100.00;99453.13;6106971;19;20007;-73
2023/09/30 06:18:57;;;;;;;7.28;2.90;;;;;;;9.76;100.00;99454.97;6106167;19;20002;-73
2023/09/30 06:20:57;;;;;;;7.78;3.20;;;;;;;9.82;100.00;99470.16;6105240;19;20003;-73
2023/09/30 06:22:58;;;;;;;5.50;2.90;;;;;;;9.83;100.00;99478.09;6107394;19;20003;-73
2023/09/30 06:24:58;;;;;;;4.53;2.83;;;;;;;9.84;100.00;99476.94;6103645;19;20024;-74
2023/09/30 06:26:58;;;;;;;8.27;3.17;;;;;;;9.80;100.00;99475.25;6107472;19;20042;-73
2023/09/30 06:29:00;;;;;;;7.10;3.60;;;;;;;9.78;100.00;99469.28;6104445;19;20010;-74
2023/09/30 06:31:00;;;;;;;6.40;3.42;;;;;;;9.78;100.00;99459.03;6103891;19;20066;-73
2023/09/30 06:33:01;;;;;;;8.85;3.00;;;;;;;9.78;100.00;99453.50;6106770;19;20019;-73
2023/09/30 06:35:06;;;;;;;7.25;2.90;;;;;;;9.81;100.00;99457.50;6104247;19;20375;-74
2023/09/30 06:37:06;;;;;;;7.65;2.80;;;;;;;9.84;100.00;99465.09;6106042;19;20007;-74
2023/09/30 06:39:07;;;;;;;6.65;3.15;;;;;;;9.88;100.00;99462.44;6106025;19;20524;-73
2023/09/30 06:41:08;;;;;;;11.18;3.60;;;;;;;9.95;100.00;99479.25;6105036;19;20014;-73
2023/09/30 06:43:08;;;;;;;9.65;3.80;;;;;;;9.99;100.00;99478.19;6106380;19;20049;-73
2023/09/30 06:45:09;;;;;;;8.50;3.90;;;;;;;10.01;100.00;99488.88;6105181;19;20546;-74
2023/09/30 06:47:12;;;;;;;10.60;4.05;;;;;;;10.02;100.00;99485.81;6105835;19;20038;-73
2023/09/30 06:49:12;;;;;;;6.30;3.00;;;;;;;10.10;100.00;99489.59;6104331;19;20333;-73
2023/09/30 06:51:15;;;;;;;7.22;3.63;;;;;;;10.16;100.00;99493.69;6104569;19;20010;-73
2023/09/30 06:53:16;;;;;;;;;;;;;;;10.25;100.00;99482.50;6106254;19;20003;-73
2023/09/30 06:55:16;;;;;;;9.75;4.10;;;;;;;10.26;100.00;99492.41;6111069;19;19910;-73
2023/09/30 06:57:16;;;;;;;7.85;3.58;;;;;;;10.28;100.00;99490.13;6111979;19;20443;-73
2023/09/30 06:59:17;;;;;;;10.60;3.83;;;;;;;10.26;100.00;99484.94;6110325;19;20019;-74
2023/09/30 07:01:17;;;;;;;7.85;3.50;;;;;;;10.27;100.00;99477.47;6110601;19;20034;-73
2023/09/30 07:03:19;;;;;;;11.75;3.60;;;;;;;10.31;100.00;99475.59;6109770;19;20451;-73
2023/09/30 07:05:19;;;;;;;10.80;4.25;;;;;;;10.32;100.00;99483.53;6110671;19;20479;-74
2023/09/30 07:07:20;;;;;;;6.28;3.25;;;;;;;10.35;100.00;99487.56;6110953;19;20020;-73
2023/09/30 07:09:20;;;;;;;11.73;3.55;;;;;;;10.34;100.00;99491.47;6111865;19;20361;-73
2023/09/30 07:11:33;;;;;;;5.85;2.78;;;;;;;10.35;100.00;99504.16;6110584;19;20007;-73
2023/09/30 07:13:34;;;;;;;8.95;4.07;;;;;;;10.33;100.00;99498.97;6111714;19;20011;-74
2023/09/30 07:15:34;;;;;;;10.35;3.95;;;;;;;10.33;100.00;99498.16;6111035;19;20339;-73
2023/09/30 07:17:35;;;;;;;9.13;3.85;;;;;;;10.35;100.00;99515.22;6111236;19;20003;-73
2023/09/30 07:19:36;;;;;;;10.00;3.40;;;;;;;10.38;100.00;99512.56;6111638;19;20586;-73
2023/09/30 07:21:37;;;;;;;6.78;3.38;;;;;;;10.43;100.00;99521.78;6110338;19;20054;-73
2023/09/30 07:23:37;;;;;;;9.18;3.72;;;;;;;10.44;100.00;99513.13;6108495;19;20006;-73
2023/09/30 07:25:38;;;;;;;8.10;3.70;;;;;;;10.48;100.00;99524.28;6111272;19;20003;-73
2023/09/30 07:27:38;;;;;;;9.10;3.50;;;;;;;10.54;100.00;99526.44;6111095;19;20011;-73
2023/09/30 07:29:38;;;;;;;16.45;8.63;;;;;;;10.65;100.00;99519.22;6110629;19;20014;-74
2023/09/30 07:31:39;;;;;;;15.90;6.22;;;;;;;10.71;100.00;99530.06;6105091;19;20023;-73
2023/09/30 07:33:39;;;;;;;13.27;5.50;;;;;;;10.74;100.00;99526.56;6109850;19;20324;-73
2023/09/30 07:35:39;;;;;;;12.50;4.35;;;;;;;10.82;100.00;99523.66;6106650;19;20058;-73
2023/09/30 07:37:41;;;;;;;13.73;4.50;;;;;;;10.97;100.00;99522.88;6110295;19;20044;-73
2023/09/30 07:39:41;;;;;;;10.48;3.80;;;;;;;11.08;100.00;99523.13;6107763;19;20017;-74
2023/09/30 07:41:41;;;;;;;9.48;3.45;;;;;;;11.17;100.00;99526.56;6110021;19;20598;-73
2023/09/30 07:43:42;;;;;;;6.78;3.25;;;;;;;11.24;100.00;99528.69;6110575;19;20006;-73
2023/09/30 07:45:43;;;;;;;7.22;3.10;;;;;;;11.32;100.00;99538.00;6111504;19;20078;-73
2023/09/30 07:47:46;;;;;;;9.15;3.38;;;;;;;11.40;100.00;99535.03;6110068;19;20003;-73
2023/09/30 07:49:46;;;;;;;7.70;3.03;;;;;;;11.46;100.00;99539.16;6109725;19;20442;-73
2023/09/30 07:51:47;;;;;;;8.70;3.08;;;;;;;11.54;100.00;99538.19;6109318;19;19999;-73
2023/09/30 07:53:47;;;;;;;8.45;3.28;;;;;;;11.58;100.00;99535.47;6110758;19;20565;-73
2023/09/30 07:55:48;;;;;;;7.07;2.85;;;;;;;11.64;100.00;99538.78;6109829;19;20009;-73
2023/09/30 07:57:49;;;;;;;11.15;3.00;;;;;;;11.66;100.00;99531.72;6109286;19;20013;-73
2023/09/30 07:59:50;;;;;;;8.75;2.92;;;;;;;11.74;100.00;99541.00;6110595;19;20017;-73
2023/09/30 08:01:54;;;;;;;8.30;2.80;;;;;;;11.79;100.00;99538.78;6108647;19;20014;-73
2023/09/30 08:03:55;;;;;;;7.95;2.90;;;;;;;11.88;100.00;99543.34;6107540;19;20111;-73
2023/09/30 08:05:56;;;;;;;9.30;3.10;;;;;;;11.97;100.00;99552.28;6107140;19;20033;-73
2023/09/30 08:07:56;;;;;;;11.77;2.70;;;;;;;12.03;100.00;99550.84;6109580;19;20070;-73
2023/09/30 08:09:57;;;;;;;7.88;2.50;;;;;;;12.11;100.00;99546.25;6108614;19;20003;-74
2023/09/30 08:11:58;;;;;;;8.30;3.45;;;;;;;12.17;100.00;99556.72;6110365;19;20454;-73
2023/09/30 08:13:58;;;;;;;7.63;2.55;;;;;;;12.23;100.00;99544.13;6109627;19;20010;-73
2023/09/30 08:15:59;;;;;;;9.05;2.28;;;;;;;12.35;100.00;99551.53;6109826;19;20011;-73
2023/09/30 08:18:00;;;;;;;10.65;3.13;;;;;;;12.40;100.00;99553.22;6109783;19;20014;-73
2023/09/30 08:20:00;;;;;;;9.25;2.53;;;;;;;12.45;100.00;99552.94;6108507;19;20555;-73
2023/09/30 08:22:00;;;;;;;7.00;2.88;;;;;;;12.57;100.00;99550.81;6109604;19;20007;-73
2023/09/30 08:24:02;;;;;;;7.90;2.38;;;;;;;12.62;100.00;99560.81;6109687;19;20010;-73
2023/09/30 08:26:04;;;;;;;8.32;2.65;;;;;;;12.59;100.00;99564.34;6108528;19;20015;-73
2023/09/30 08:28:05;;;;;;;10.10;3.10;;;;;;;12.69;100.00;99557.41;6109649;19;20017;-73
2023/09/30 08:30:06;;;;;;;7.43;2.17;;;;;;;12.66;100.00;99561.72;6108276;19;20062;-73
2023/09/30 08:32:07;;;;;;;10.07;2.78;;;;;;;12.61;100.00;99562.81;6106651;19;20037;-73
2023/09/30 08:34:08;;;;;;;9.63;2.60;;;;;;;12.62;100.00;99563.59;6106094;19;20006;-73
2023/09/30 08:36:09;;;;;;;9.70;2.95;;;;;;;12.62;100.00;99564.41;6108638;19;20121;-73
2023/09/30 08:38:09;;;;;;;8.35;3.20;;;;;;;12.64;100.00;99564.03;6108317;19;20006;-73
2023/09/30 08:40:11;;;;;;;9.63;3.35;;;;;;;12.75;100.00;99556.75;6106875;19;20091;-73
2023/09/30 08:42:12;;;;;;;10.15;3.15;;;;;;;12.92;100.00;99572.16;6109223;19;20550;-73
2023/09/30 08:44:12;;;;;;;7.63;2.28;;;;;;;13.01;100.00;99560.81;6109075;19;20005;-73
2023/09/30 08:46:14;;;;;;;7.70;2.60;;;;;;;13.10;100.00;99553.84;6108817;19;20011;-73
2023/09/30 08:48:15;;;;;;;11.27;3.72;;;;;;;13.12;100.00;99559.03;6108867;19;20014;-73
2023/09/30 08:50:16;;;;;;;8.15;2.63;;;;;;;13.18;100.00;99568.66;6098006;19;20007;-74
2023/09/30 08:52:17;;;;;;;9.88;3.17;;;;;;;13.21;100.00;99562.38;6108555;19;20013;-74
2023/09/30 08:54:17;;;;;;;9.00;3.00;;;;;;;13.23;100.00;99562.81;6108939;19;20010;-73
2023/09/30 08:56:22;;;;;;;11.52;2.95;;;;;;;13.25;100.00;99560.50;6109701;19;20487;-73
2023/09/30 08:58:29;;;;;;;6.32;2.42;;;;;;;13.30;100.00;99562.94;6108670;19;20027;-73
2023/09/30 09:00:29;;;;;;;8.00;2.60;;;;;;;13.43;100.00;99567.16;6108165;19;20013;-73
2023/09/30 09:02:29;;;;;;;12.52;3.05;;;;;;;13.36;100.00;99561.47;6109857;19;20477;-73
2023/09/30 09:04:31;;;;;;;9.63;2.72;;;;;;;13.45;100.00;99558.44;6108787;19;20583;-74
2023/09/30 09:06:31;;;;;;;9.02;2.80;;;;;;;13.37;100.00;99557.53;6107483;19;20015;-73
2023/09/30 09:08:32;;;;;;;7.43;2.72;;;;;;;13.31;100.00;99561.78;6108296;19;20795;-73
2023/09/30 09:10:33;;;;;;;7.15;2.90;;;;;;;13.22;100.00;99552.88;6107136;19;20003;-73
2023/09/30 09:12:36;;;;;;;10.80;2.95;;;;;;;13.23;100.00;99560.03;6109027;19;20029;-73
2023/09/30 09:14:38;;;;;;;9.85;2.70;;;;;;;13.30;100.00;99559.38;6108972;19;20238;-73
2023/09/30 09:16:55;;;;;;;7.97;2.50;;;;;;;13.38;100.00;99556.34;6108414;19;20459;-73
2023/09/30 09:18:56;;;;;;;7.60;2.30;;;;;;;13.44;100.00;99560.44;6106246;19;20066;-73
2023/09/30 09:21:17;;;;;;;7.22;2.40;;;;;;;13.44;100.00;99563.22;6108014;19;20031;-73
2023/09/30 09:23:17;;;;;;;8.75;3.22;;;;;;;13.37;100.00;99565.06;6108160;19;20010;-73